Sun River City — WDG9761 — position and weather

sailwx.info

Track history (hours):
 
Tides and Currents Weather Stations Pressure Air Temp Water Temp Dewpoint Dewpoint Depression Visibility Wind Speed Wind Dir Waves Ship Positions

Sun River City

Owner: Vane Line Bunkering INC, Philadelphia, PA. More information available from US FCC via Universal Licensing System and Coast Guard Vessel Documentation Center.

Last reported at 2017-Nov-18 16:38 UTC. Time now 2017-Nov-18 23:51 UTC.
Position N 30°25' W 081°33'.

; draft 2 m.

Type: Towing. MMSI: 367590890.

Date/timePositionNaut miles runAvg speedWind from/ knotsBaromVisibWave heightAir tempDewpointWater temp
2017-Nov-18 16:38N 30°25' W 081°33'0 0.0
2017-Nov-18 15:13N 30°25' W 081°33'0 0.0
2017-Nov-18 14:59N 30°25' W 081°33'0 0.0
2017-Nov-18 14:30N 30°25' W 081°33'0 0.1
2017-Nov-18 14:00N 30°25' W 081°33'2 3.2
2017-Nov-18 13:30N 30°24' W 081°34'2 4.5
2017-Nov-18 12:58N 30°24' W 081°37'2 5.1
2017-Nov-18 12:29N 30°22' W 081°37'2 4.3
2017-Nov-18 12:00N 30°19' W 081°38'0 0.0
2017-Nov-18 08:48N 30°20' W 081°38'0 0.0
2017-Nov-18 08:24N 30°20' W 081°38'0 0.0
2017-Nov-18 08:00N 30°20' W 081°38'0 0.0
2017-Nov-18 06:30N 30°20' W 081°38'0 0.0
2017-Nov-18 06:00N 30°20' W 081°38'  
Track history (hours):
 
Tides and Currents Weather Stations Pressure Air Temp Water Temp Dewpoint Dewpoint Depression Visibility Wind Speed Wind Dir Waves Ship Positions

Sun River City

Owner: Vane Line Bunkering INC, Philadelphia, PA. More information available from US FCC via Universal Licensing System and Coast Guard Vessel Documentation Center.

Last reported at 2017-Nov-18 16:38 UTC. Time now 2017-Nov-18 23:51 UTC.
Position N 30°25' W 081°33'.

; draft 2 m.

Type: Towing. MMSI: 367590890.

Date/timePositionNaut miles runAvg speedWind from/ knotsBaromVisibWave heightAir tempDewpointWater temp
2017-Nov-18 16:38N 30°25' W 081°33'0 0.0
2017-Nov-18 15:13N 30°25' W 081°33'0 0.0
2017-Nov-18 14:59N 30°25' W 081°33'0 0.0
2017-Nov-18 14:30N 30°25' W 081°33'0 0.1
2017-Nov-18 14:00N 30°25' W 081°33'2 3.2
2017-Nov-18 13:30N 30°24' W 081°34'2 4.5
2017-Nov-18 12:58N 30°24' W 081°37'2 5.1
2017-Nov-18 12:29N 30°22' W 081°37'2 4.3
2017-Nov-18 12:00N 30°19' W 081°38'0 0.0
2017-Nov-18 08:48N 30°20' W 081°38'0 0.0
2017-Nov-18 08:24N 30°20' W 081°38'0 0.0
2017-Nov-18 08:00N 30°20' W 081°38'0 0.0
2017-Nov-18 06:30N 30°20' W 081°38'0 0.0
2017-Nov-18 06:00N 30°20' W 081°38'  

Dump ship's entire track history